N100AZ KDAL-KSJT
Flight info
| Callsign | N100AZ |
|---|---|
| Flight time | 1h 15m |
| Altitude | 16000 |
| Route | KING5 MQP |
| Aircraft | C414/L-SBDFGRY/S |
Departure
| Time | 2026-04-15 14:45 |
|---|---|
| Airport | Dallas Love Field (KDAL) |
Arrival
| Time | 2026-04-15 16:00 |
|---|---|
| Airport | San Angelo Regional Mathis Field (KSJT) |
| Time | Latitude | Longitude | Altitude | Speed | Heading |
|---|---|---|---|---|---|
| 2026-04-15 14:30 | 32.85524 | -96.85156 | 476 ft | 0 kts | 229° |
| 2026-04-15 14:36 | 32.85521 | -96.85158 | 473 ft | 4 kts | 195° |
| 2026-04-15 14:37 | 32.85545 | -96.85145 | 476 ft | 4 kts | 348° |
| 2026-04-15 14:37 | 32.85546 | -96.85146 | 476 ft | 2 kts | 347° |
| 2026-04-15 14:37 | 32.85610 | -96.85165 | 476 ft | 17 kts | 344° |
| 2026-04-15 14:37 | 32.85654 | -96.85240 | 473 ft | 10 kts | 221° |
| 2026-04-15 14:38 | 32.85605 | -96.85254 | 476 ft | 5 kts | 186° |
| 2026-04-15 14:38 | 32.85589 | -96.85256 | 476 ft | 0 kts | 186° |
| 2026-04-15 14:39 | 32.85575 | -96.85264 | 475 ft | 8 kts | 231° |
| 2026-04-15 14:39 | 32.85617 | -96.85347 | 476 ft | 18 kts | 319° |
| 2026-04-15 14:40 | 32.85703 | -96.85461 | 476 ft | 17 kts | 318° |
| 2026-04-15 14:40 | 32.85779 | -96.85514 | 476 ft | 10 kts | 30° |
| 2026-04-15 14:40 | 32.85789 | -96.85485 | 474 ft | 2 kts | 185° |
| 2026-04-15 14:40 | 32.85788 | -96.85485 | 474 ft | 0 kts | 187° |
| 2026-04-15 14:42 | 32.85785 | -96.85486 | 473 ft | 5 kts | 199° |
| 2026-04-15 14:43 | 32.85792 | -96.85564 | 476 ft | 12 kts | 246° |
| 2026-04-15 14:43 | 32.85698 | -96.85634 | 476 ft | 18 kts | 149° |
| 2026-04-15 14:43 | 32.85672 | -96.85612 | 474 ft | 0 kts | 137° |
| 2026-04-15 14:43 | 32.85669 | -96.85609 | 472 ft | 5 kts | 137° |
| 2026-04-15 14:44 | 32.85506 | -96.85427 | 476 ft | 59 kts | 136° |
| 2026-04-15 14:44 | 32.85101 | -96.84958 | 480 ft | 101 kts | 141° |
| 2026-04-15 14:44 | 32.84576 | -96.84309 | 678 ft | 119 kts | 135° |
| 2026-04-15 14:44 | 32.83960 | -96.83548 | 918 ft | 129 kts | 135° |
| 2026-04-15 14:45 | 32.83509 | -96.82576 | 1013 ft | 153 kts | 86° |
| 2026-04-15 14:45 | 32.84217 | -96.81624 | 1247 ft | 166 kts | 21° |
| 2026-04-15 14:45 | 32.85270 | -96.82053 | 1279 ft | 171 kts | 301° |
| 2026-04-15 14:45 | 32.85983 | -96.83225 | 1341 ft | 180 kts | 302° |
| 2026-04-15 14:46 | 32.86648 | -96.84497 | 1337 ft | 185 kts | 292° |
| 2026-04-15 14:46 | 32.87238 | -96.85813 | 1702 ft | 172 kts | 291° |
| 2026-04-15 14:46 | 32.87807 | -96.87036 | 2069 ft | 167 kts | 287° |
| 2026-04-15 14:46 | 32.88138 | -96.88252 | 2493 ft | 139 kts | 257° |
| 2026-04-15 14:47 | 32.87896 | -96.89367 | 2579 ft | 142 kts | 241° |
| 2026-04-15 14:47 | 32.87550 | -96.90489 | 2706 ft | 148 kts | 241° |
| 2026-04-15 14:47 | 32.87170 | -96.91628 | 2856 ft | 148 kts | 240° |
| 2026-04-15 14:47 | 32.86767 | -96.92755 | 2964 ft | 150 kts | 240° |
| 2026-04-15 14:48 | 32.86435 | -96.93995 | 2943 ft | 163 kts | 251° |
| 2026-04-15 14:48 | 32.86350 | -96.95340 | 3085 ft | 163 kts | 259° |
| 2026-04-15 14:48 | 32.86363 | -96.96665 | 3333 ft | 158 kts | 266° |
| 2026-04-15 14:48 | 32.86495 | -96.97953 | 3591 ft | 150 kts | 266° |
| 2026-04-15 14:49 | 32.86580 | -96.99146 | 3983 ft | 140 kts | 266° |
| 2026-04-15 14:49 | 32.86658 | -97.00265 | 4398 ft | 132 kts | 265° |
| 2026-04-15 14:49 | 32.86730 | -97.01328 | 4817 ft | 126 kts | 266° |
| 2026-04-15 14:49 | 32.86799 | -97.02410 | 4976 ft | 141 kts | 266° |
| 2026-04-15 14:50 | 32.86878 | -97.03642 | 4992 ft | 161 kts | 267° |
| 2026-04-15 14:50 | 32.86733 | -97.04970 | 4990 ft | 165 kts | 251° |
| 2026-04-15 14:50 | 32.86446 | -97.06322 | 4991 ft | 172 kts | 253° |
| 2026-04-15 14:50 | 32.86166 | -97.07726 | 4993 ft | 176 kts | 253° |
| 2026-04-15 14:51 | 32.85879 | -97.09152 | 4991 ft | 178 kts | 252° |
| 2026-04-15 14:51 | 32.85586 | -97.10593 | 4988 ft | 181 kts | 253° |
| 2026-04-15 14:51 | 32.85290 | -97.12061 | 4993 ft | 184 kts | 253° |
| 2026-04-15 14:51 | 32.84984 | -97.13556 | 4993 ft | 188 kts | 253° |
| 2026-04-15 14:52 | 32.84672 | -97.15074 | 4984 ft | 189 kts | 253° |
| 2026-04-15 14:52 | 32.84365 | -97.16580 | 4985 ft | 187 kts | 253° |
| 2026-04-15 14:52 | 32.84060 | -97.18079 | 4981 ft | 186 kts | 253° |
| 2026-04-15 14:52 | 32.83756 | -97.19566 | 4977 ft | 185 kts | 253° |
| 2026-04-15 14:53 | 32.83452 | -97.21050 | 4971 ft | 184 kts | 253° |
| 2026-04-15 14:53 | 32.83150 | -97.22529 | 4972 ft | 184 kts | 253° |
| 2026-04-15 14:53 | 32.82842 | -97.24010 | 4973 ft | 184 kts | 253° |
| 2026-04-15 14:53 | 32.82553 | -97.25423 | 5292 ft | 168 kts | 253° |
| 2026-04-15 14:54 | 32.82289 | -97.26730 | 5640 ft | 158 kts | 254° |
| 2026-04-15 14:54 | 32.82033 | -97.27969 | 5999 ft | 152 kts | 253° |
| 2026-04-15 14:54 | 32.81785 | -97.29178 | 6360 ft | 149 kts | 254° |
| 2026-04-15 14:54 | 32.81538 | -97.30370 | 6700 ft | 149 kts | 255° |
| 2026-04-15 14:55 | 32.81293 | -97.31565 | 7048 ft | 149 kts | 255° |
| 2026-04-15 14:55 | 32.81048 | -97.32752 | 7392 ft | 147 kts | 255° |
| 2026-04-15 14:55 | 32.80804 | -97.33930 | 7749 ft | 146 kts | 255° |
| 2026-04-15 14:55 | 32.80560 | -97.35088 | 8110 ft | 143 kts | 255° |
| 2026-04-15 14:56 | 32.80324 | -97.36235 | 8465 ft | 142 kts | 256° |
| 2026-04-15 14:56 | 32.80096 | -97.37367 | 8833 ft | 140 kts | 255° |
| 2026-04-15 14:56 | 32.79867 | -97.38477 | 9193 ft | 137 kts | 255° |
| 2026-04-15 14:56 | 32.79644 | -97.39567 | 9560 ft | 135 kts | 255° |
| 2026-04-15 14:57 | 32.79422 | -97.40637 | 9943 ft | 131 kts | 255° |
| 2026-04-15 14:57 | 32.79205 | -97.41691 | 10277 ft | 131 kts | 255° |
| 2026-04-15 14:57 | 32.78990 | -97.42736 | 10619 ft | 130 kts | 254° |
| 2026-04-15 14:57 | 32.78776 | -97.43772 | 10970 ft | 128 kts | 254° |
| 2026-04-15 14:58 | 32.78563 | -97.44800 | 11328 ft | 128 kts | 253° |
| 2026-04-15 14:58 | 32.78351 | -97.45824 | 11680 ft | 127 kts | 253° |
| 2026-04-15 14:58 | 32.78141 | -97.46836 | 12041 ft | 126 kts | 252° |
| 2026-04-15 14:58 | 32.77933 | -97.47840 | 12408 ft | 124 kts | 251° |
| 2026-04-15 14:59 | 32.77729 | -97.48827 | 12777 ft | 122 kts | 251° |
| 2026-04-15 14:59 | 32.77526 | -97.49799 | 13147 ft | 120 kts | 250° |
| 2026-04-15 14:59 | 32.77328 | -97.50755 | 13523 ft | 118 kts | 250° |
| 2026-04-15 14:59 | 32.77135 | -97.51690 | 13904 ft | 115 kts | 249° |
| 2026-04-15 15:00 | 32.76943 | -97.52609 | 14238 ft | 114 kts | 248° |
| 2026-04-15 15:00 | 32.76758 | -97.53512 | 14583 ft | 111 kts | 248° |
| 2026-04-15 15:00 | 32.76574 | -97.54393 | 14929 ft | 109 kts | 248° |
| 2026-04-15 15:00 | 32.76395 | -97.55254 | 15279 ft | 106 kts | 247° |
| 2026-04-15 15:01 | 32.76221 | -97.56090 | 15635 ft | 103 kts | 247° |
| 2026-04-15 15:01 | 32.76051 | -97.56908 | 15979 ft | 102 kts | 246° |
| 2026-04-15 15:01 | 32.75858 | -97.57816 | 16015 ft | 124 kts | 248° |
| 2026-04-15 15:01 | 32.75640 | -97.58875 | 16017 ft | 143 kts | 249° |
| 2026-04-15 15:02 | 32.75391 | -97.60079 | 16014 ft | 157 kts | 249° |
| 2026-04-15 15:02 | 32.75121 | -97.61382 | 16006 ft | 168 kts | 250° |
| 2026-04-15 15:02 | 32.74837 | -97.62761 | 16000 ft | 176 kts | 250° |
| 2026-04-15 15:02 | 32.74537 | -97.64204 | 15993 ft | 182 kts | 250° |
| 2026-04-15 15:03 | 32.74229 | -97.65682 | 15987 ft | 186 kts | 250° |
| 2026-04-15 15:03 | 32.73918 | -97.67178 | 16086 ft | 187 kts | 250° |
| 2026-04-15 15:03 | 32.73604 | -97.68680 | 16082 ft | 188 kts | 250° |
| 2026-04-15 15:03 | 32.73287 | -97.70196 | 16085 ft | 190 kts | 250° |
| 2026-04-15 15:04 | 32.72967 | -97.71730 | 16076 ft | 192 kts | 251° |
| 2026-04-15 15:04 | 32.72660 | -97.73270 | 16067 ft | 193 kts | 255° |
| 2026-04-15 15:04 | 32.72630 | -97.74880 | 16068 ft | 196 kts | 263° |
| 2026-04-15 15:04 | 32.72638 | -97.76484 | 16062 ft | 193 kts | 262° |
| 2026-04-15 15:05 | 32.72636 | -97.78069 | 16056 ft | 190 kts | 262° |
| 2026-04-15 15:05 | 32.72634 | -97.79636 | 16050 ft | 189 kts | 262° |
| 2026-04-15 15:05 | 32.72634 | -97.81193 | 16041 ft | 187 kts | 262° |
| 2026-04-15 15:05 | 32.72635 | -97.82726 | 15945 ft | 184 kts | 262° |
| 2026-04-15 15:06 | 32.72631 | -97.85784 | 15951 ft | 188 kts | 262° |
| 2026-04-15 15:06 | 32.72631 | -97.87343 | 15959 ft | 190 kts | 262° |
| 2026-04-15 15:06 | 32.72632 | -97.88346 | 16276 ft | 174 kts | 261° |
| 2026-04-15 15:07 | 32.72629 | -97.89812 | 16256 ft | 182 kts | 261° |
| 2026-04-15 15:07 | 32.72627 | -97.91340 | 16147 ft | 188 kts | 262° |
| 2026-04-15 15:07 | 32.72624 | -97.92913 | 16031 ft | 192 kts | 262° |
| 2026-04-15 15:07 | 32.72623 | -97.94502 | 15984 ft | 192 kts | 262° |
| 2026-04-15 15:08 | 32.72624 | -97.96076 | 15987 ft | 190 kts | 262° |
| 2026-04-15 15:08 | 32.72623 | -97.97639 | 15986 ft | 188 kts | 262° |
| 2026-04-15 15:08 | 32.72597 | -97.99180 | 15990 ft | 184 kts | 256° |
| 2026-04-15 15:08 | 32.72186 | -98.00570 | 15985 ft | 176 kts | 236° |
| 2026-04-15 15:09 | 32.71532 | -98.01791 | 15988 ft | 175 kts | 235° |
| 2026-04-15 15:09 | 32.70886 | -98.03019 | 15982 ft | 175 kts | 235° |
| 2026-04-15 15:09 | 32.70239 | -98.04245 | 15984 ft | 175 kts | 235° |
| 2026-04-15 15:09 | 32.69594 | -98.05467 | 15989 ft | 175 kts | 235° |
| 2026-04-15 15:10 | 32.68947 | -98.06690 | 15990 ft | 175 kts | 235° |
| 2026-04-15 15:10 | 32.68295 | -98.07922 | 15981 ft | 177 kts | 235° |
| 2026-04-15 15:10 | 32.67649 | -98.09141 | 15978 ft | 177 kts | 236° |
| 2026-04-15 15:10 | 32.66988 | -98.10391 | 15978 ft | 177 kts | 235° |
| 2026-04-15 15:11 | 32.66344 | -98.11609 | 15984 ft | 176 kts | 235° |
| 2026-04-15 15:11 | 32.65694 | -98.12835 | 15975 ft | 176 kts | 235° |
| 2026-04-15 15:11 | 32.65041 | -98.14067 | 15969 ft | 176 kts | 235° |
| 2026-04-15 15:11 | 32.64391 | -98.15293 | 15964 ft | 175 kts | 235° |
| 2026-04-15 15:12 | 32.63742 | -98.16517 | 15973 ft | 176 kts | 235° |
| 2026-04-15 15:12 | 32.63092 | -98.17743 | 15966 ft | 175 kts | 235° |
| 2026-04-15 15:12 | 32.62443 | -98.18965 | 15959 ft | 175 kts | 235° |
| 2026-04-15 15:12 | 32.61795 | -98.20187 | 15964 ft | 175 kts | 235° |
| 2026-04-15 15:13 | 32.61147 | -98.21408 | 15956 ft | 175 kts | 235° |
| 2026-04-15 15:13 | 32.60501 | -98.22627 | 15953 ft | 175 kts | 236° |
| 2026-04-15 15:13 | 32.59852 | -98.23847 | 15948 ft | 175 kts | 235° |
| 2026-04-15 15:13 | 32.59205 | -98.25064 | 15947 ft | 174 kts | 235° |
| 2026-04-15 15:14 | 32.58557 | -98.26281 | 15943 ft | 175 kts | 235° |
| 2026-04-15 15:14 | 32.57908 | -98.27500 | 15940 ft | 175 kts | 235° |
| 2026-04-15 15:14 | 32.57263 | -98.28715 | 15941 ft | 174 kts | 235° |
| 2026-04-15 15:14 | 32.56617 | -98.29927 | 15932 ft | 174 kts | 235° |
| 2026-04-15 15:15 | 32.55974 | -98.31134 | 15928 ft | 173 kts | 235° |
| 2026-04-15 15:15 | 32.55333 | -98.32338 | 15935 ft | 173 kts | 235° |
| 2026-04-15 15:15 | 32.54690 | -98.33549 | 15923 ft | 175 kts | 235° |
| 2026-04-15 15:15 | 32.54033 | -98.34781 | 15928 ft | 178 kts | 235° |
| 2026-04-15 15:16 | 32.53365 | -98.36031 | 15919 ft | 181 kts | 236° |
| 2026-04-15 15:16 | 32.52688 | -98.37301 | 15923 ft | 183 kts | 236° |
| 2026-04-15 15:16 | 32.52007 | -98.38580 | 15924 ft | 184 kts | 236° |
| 2026-04-15 15:16 | 32.51320 | -98.39867 | 15919 ft | 186 kts | 235° |
| 2026-04-15 15:17 | 32.50629 | -98.41163 | 15920 ft | 186 kts | 235° |
| 2026-04-15 15:17 | 32.49937 | -98.42459 | 15927 ft | 187 kts | 235° |
| 2026-04-15 15:17 | 32.49241 | -98.43762 | 15935 ft | 188 kts | 235° |
| 2026-04-15 15:17 | 32.48542 | -98.45070 | 15932 ft | 188 kts | 236° |
| 2026-04-15 15:18 | 32.47854 | -98.46357 | 15937 ft | 188 kts | 236° |
| 2026-04-15 15:18 | 32.47154 | -98.47666 | 15951 ft | 188 kts | 236° |
| 2026-04-15 15:18 | 32.46456 | -98.48972 | 15951 ft | 188 kts | 236° |
| 2026-04-15 15:18 | 32.45755 | -98.50282 | 15954 ft | 188 kts | 236° |
| 2026-04-15 15:19 | 32.45053 | -98.51594 | 15962 ft | 188 kts | 236° |
| 2026-04-15 15:19 | 32.44352 | -98.52902 | 15959 ft | 188 kts | 235° |
| 2026-04-15 15:19 | 32.43651 | -98.54211 | 15970 ft | 188 kts | 236° |
| 2026-04-15 15:19 | 32.42949 | -98.55521 | 15976 ft | 188 kts | 236° |
| 2026-04-15 15:20 | 32.42248 | -98.56829 | 15970 ft | 188 kts | 235° |
| 2026-04-15 15:20 | 32.41548 | -98.58135 | 15983 ft | 188 kts | 235° |
| 2026-04-15 15:20 | 32.40847 | -98.59443 | 15986 ft | 188 kts | 235° |
| 2026-04-15 15:20 | 32.40145 | -98.60751 | 15990 ft | 188 kts | 235° |
| 2026-04-15 15:21 | 32.39443 | -98.62058 | 15988 ft | 188 kts | 236° |
| 2026-04-15 15:21 | 32.38741 | -98.63366 | 15997 ft | 188 kts | 236° |
| 2026-04-15 15:21 | 32.38038 | -98.64676 | 16002 ft | 188 kts | 236° |
| 2026-04-15 15:21 | 32.37336 | -98.65982 | 16001 ft | 188 kts | 236° |
| 2026-04-15 15:22 | 32.36634 | -98.67289 | 16001 ft | 188 kts | 235° |
| 2026-04-15 15:22 | 32.35932 | -98.68594 | 16001 ft | 188 kts | 235° |
| 2026-04-15 15:22 | 32.35229 | -98.69899 | 16008 ft | 188 kts | 236° |
| 2026-04-15 15:22 | 32.34527 | -98.71204 | 16014 ft | 188 kts | 235° |
| 2026-04-15 15:23 | 32.33825 | -98.72510 | 16006 ft | 188 kts | 235° |
| 2026-04-15 15:23 | 32.33124 | -98.73812 | 16008 ft | 188 kts | 235° |
| 2026-04-15 15:23 | 32.32422 | -98.75115 | 16009 ft | 188 kts | 236° |
| 2026-04-15 15:23 | 32.31719 | -98.76419 | 16010 ft | 188 kts | 235° |
| 2026-04-15 15:24 | 32.31017 | -98.77722 | 16012 ft | 188 kts | 236° |
| 2026-04-15 15:24 | 32.30316 | -98.79022 | 16009 ft | 188 kts | 235° |
| 2026-04-15 15:24 | 32.29614 | -98.80324 | 16009 ft | 188 kts | 235° |
| 2026-04-15 15:24 | 32.28913 | -98.81624 | 16006 ft | 188 kts | 236° |
| 2026-04-15 15:25 | 32.28211 | -98.82927 | 15998 ft | 188 kts | 236° |
| 2026-04-15 15:25 | 32.27508 | -98.84229 | 15998 ft | 188 kts | 235° |
| 2026-04-15 15:25 | 32.26805 | -98.85528 | 15999 ft | 188 kts | 235° |
| 2026-04-15 15:25 | 32.26102 | -98.86829 | 15998 ft | 188 kts | 235° |
| 2026-04-15 15:26 | 32.25398 | -98.88133 | 15992 ft | 188 kts | 235° |
| 2026-04-15 15:26 | 32.24694 | -98.89435 | 15991 ft | 188 kts | 235° |
| 2026-04-15 15:26 | 32.23992 | -98.90733 | 15983 ft | 188 kts | 235° |
| 2026-04-15 15:26 | 32.23287 | -98.92035 | 15979 ft | 188 kts | 235° |
| 2026-04-15 15:27 | 32.22583 | -98.93337 | 15977 ft | 188 kts | 235° |
| 2026-04-15 15:27 | 32.21880 | -98.94634 | 15975 ft | 188 kts | 235° |
| 2026-04-15 15:27 | 32.21176 | -98.95934 | 15979 ft | 187 kts | 235° |
| 2026-04-15 15:27 | 32.20473 | -98.97230 | 15974 ft | 188 kts | 235° |
| 2026-04-15 15:28 | 32.19771 | -98.98526 | 15968 ft | 188 kts | 235° |
| 2026-04-15 15:28 | 32.19076 | -98.99809 | 15966 ft | 188 kts | 235° |
| 2026-04-15 15:28 | 32.18362 | -99.01127 | 15965 ft | 188 kts | 235° |
| 2026-04-15 15:28 | 32.17659 | -99.02423 | 15953 ft | 188 kts | 235° |
| 2026-04-15 15:29 | 32.16963 | -99.03706 | 15955 ft | 188 kts | 235° |
| 2026-04-15 15:29 | 32.16249 | -99.05020 | 15951 ft | 188 kts | 235° |
| 2026-04-15 15:29 | 32.15554 | -99.06299 | 15958 ft | 188 kts | 235° |
| 2026-04-15 15:29 | 32.14843 | -99.07609 | 15950 ft | 187 kts | 235° |
| 2026-04-15 15:30 | 32.14148 | -99.08889 | 15940 ft | 188 kts | 235° |
| 2026-04-15 15:30 | 32.13444 | -99.10183 | 15946 ft | 188 kts | 235° |
| 2026-04-15 15:30 | 32.12739 | -99.11479 | 15948 ft | 188 kts | 235° |
| 2026-04-15 15:30 | 32.12033 | -99.12777 | 15949 ft | 188 kts | 235° |
| 2026-04-15 15:31 | 32.11328 | -99.14073 | 15950 ft | 187 kts | 235° |
| 2026-04-15 15:31 | 32.10626 | -99.15365 | 15958 ft | 187 kts | 235° |
| 2026-04-15 15:31 | 32.09921 | -99.16656 | 15962 ft | 187 kts | 235° |
| 2026-04-15 15:31 | 32.09218 | -99.17950 | 15963 ft | 188 kts | 235° |
| 2026-04-15 15:32 | 32.08511 | -99.19245 | 15974 ft | 188 kts | 235° |
| 2026-04-15 15:32 | 32.07806 | -99.20536 | 15974 ft | 187 kts | 235° |
| 2026-04-15 15:32 | 32.07100 | -99.21832 | 15989 ft | 188 kts | 235° |
| 2026-04-15 15:32 | 32.06395 | -99.23124 | 15990 ft | 187 kts | 235° |
| 2026-04-15 15:33 | 32.05691 | -99.24415 | 15993 ft | 188 kts | 235° |
| 2026-04-15 15:33 | 32.04983 | -99.25711 | 15999 ft | 188 kts | 235° |
| 2026-04-15 15:33 | 32.04275 | -99.27009 | 16002 ft | 188 kts | 235° |
| 2026-04-15 15:33 | 32.03566 | -99.28307 | 16006 ft | 189 kts | 235° |
| 2026-04-15 15:34 | 32.02855 | -99.29608 | 16014 ft | 189 kts | 235° |
| 2026-04-15 15:34 | 32.02144 | -99.30913 | 16013 ft | 189 kts | 235° |
| 2026-04-15 15:34 | 32.01434 | -99.32209 | 16013 ft | 188 kts | 235° |
| 2026-04-15 15:34 | 32.00727 | -99.33506 | 16012 ft | 188 kts | 235° |
| 2026-04-15 15:35 | 32.00020 | -99.34800 | 16024 ft | 188 kts | 235° |
| 2026-04-15 15:35 | 31.99309 | -99.36091 | 16024 ft | 187 kts | 235° |
| 2026-04-15 15:35 | 31.98603 | -99.37379 | 16025 ft | 187 kts | 235° |
| 2026-04-15 15:35 | 31.97899 | -99.38666 | 16032 ft | 187 kts | 235° |
| 2026-04-15 15:36 | 31.97195 | -99.39952 | 16033 ft | 187 kts | 235° |
| 2026-04-15 15:36 | 31.96493 | -99.41234 | 16032 ft | 186 kts | 235° |
| 2026-04-15 15:36 | 31.95790 | -99.42513 | 16032 ft | 186 kts | 235° |
| 2026-04-15 15:36 | 31.95090 | -99.43789 | 16039 ft | 186 kts | 235° |
| 2026-04-15 15:37 | 31.94393 | -99.45069 | 16032 ft | 186 kts | 235° |
| 2026-04-15 15:37 | 31.93689 | -99.46340 | 16034 ft | 185 kts | 235° |
| 2026-04-15 15:37 | 31.92987 | -99.47617 | 16042 ft | 185 kts | 235° |
| 2026-04-15 15:37 | 31.92290 | -99.48889 | 16035 ft | 185 kts | 235° |
| 2026-04-15 15:38 | 31.91590 | -99.50166 | 16042 ft | 185 kts | 235° |
| 2026-04-15 15:38 | 31.90890 | -99.51440 | 16042 ft | 185 kts | 235° |
| 2026-04-15 15:38 | 31.90192 | -99.52711 | 16032 ft | 185 kts | 235° |
| 2026-04-15 15:38 | 31.89492 | -99.53983 | 16040 ft | 185 kts | 235° |
| 2026-04-15 15:39 | 31.88792 | -99.55256 | 16032 ft | 185 kts | 235° |
| 2026-04-15 15:39 | 31.88093 | -99.56527 | 16035 ft | 185 kts | 235° |
| 2026-04-15 15:39 | 31.87394 | -99.57797 | 16021 ft | 185 kts | 235° |
| 2026-04-15 15:39 | 31.86695 | -99.59065 | 16021 ft | 185 kts | 235° |
| 2026-04-15 15:40 | 31.86009 | -99.60312 | 16023 ft | 184 kts | 235° |
| 2026-04-15 15:40 | 31.85312 | -99.61577 | 16024 ft | 184 kts | 235° |
| 2026-04-15 15:40 | 31.84607 | -99.62855 | 16013 ft | 184 kts | 235° |
| 2026-04-15 15:40 | 31.83923 | -99.64099 | 16017 ft | 184 kts | 235° |
| 2026-04-15 15:41 | 31.83230 | -99.65357 | 16014 ft | 183 kts | 234° |
| 2026-04-15 15:41 | 31.82535 | -99.66613 | 16009 ft | 183 kts | 234° |
| 2026-04-15 15:41 | 31.81838 | -99.67873 | 16004 ft | 184 kts | 234° |
| 2026-04-15 15:41 | 31.81143 | -99.69133 | 16007 ft | 183 kts | 234° |
| 2026-04-15 15:42 | 31.80436 | -99.70409 | 15816 ft | 191 kts | 235° |
| 2026-04-15 15:42 | 31.79699 | -99.71743 | 15577 ft | 197 kts | 235° |
| 2026-04-15 15:42 | 31.78945 | -99.73112 | 15340 ft | 200 kts | 235° |
| 2026-04-15 15:42 | 31.78182 | -99.74492 | 15102 ft | 203 kts | 235° |
| 2026-04-15 15:43 | 31.77414 | -99.75882 | 14863 ft | 204 kts | 235° |
| 2026-04-15 15:43 | 31.76640 | -99.77281 | 14634 ft | 205 kts | 236° |
| 2026-04-15 15:43 | 31.75862 | -99.78686 | 14394 ft | 205 kts | 236° |
| 2026-04-15 15:43 | 31.75084 | -99.80091 | 14159 ft | 206 kts | 236° |
| 2026-04-15 15:44 | 31.74304 | -99.81502 | 13927 ft | 206 kts | 236° |
| 2026-04-15 15:44 | 31.73520 | -99.82916 | 13664 ft | 207 kts | 236° |
| 2026-04-15 15:44 | 31.72733 | -99.84336 | 13377 ft | 208 kts | 236° |
| 2026-04-15 15:44 | 31.71943 | -99.85759 | 13097 ft | 207 kts | 236° |
| 2026-04-15 15:45 | 31.71159 | -99.87174 | 12817 ft | 207 kts | 236° |
| 2026-04-15 15:45 | 31.70374 | -99.88589 | 12541 ft | 207 kts | 236° |
| 2026-04-15 15:45 | 31.69585 | -99.90010 | 12270 ft | 208 kts | 236° |
| 2026-04-15 15:45 | 31.68792 | -99.91438 | 11996 ft | 209 kts | 236° |
| 2026-04-15 15:46 | 31.67999 | -99.92865 | 11725 ft | 209 kts | 236° |
| 2026-04-15 15:46 | 31.67202 | -99.94300 | 11451 ft | 210 kts | 236° |
| 2026-04-15 15:46 | 31.66405 | -99.95734 | 11191 ft | 210 kts | 236° |
| 2026-04-15 15:46 | 31.65605 | -99.97172 | 10931 ft | 211 kts | 236° |
| 2026-04-15 15:47 | 31.64801 | -99.98617 | 10666 ft | 212 kts | 236° |
| 2026-04-15 15:47 | 31.63998 | -100.00063 | 10407 ft | 212 kts | 236° |
| 2026-04-15 15:47 | 31.63187 | -100.01518 | 10150 ft | 213 kts | 236° |
| 2026-04-15 15:47 | 31.62376 | -100.02975 | 9899 ft | 214 kts | 236° |
| 2026-04-15 15:48 | 31.61564 | -100.04430 | 9622 ft | 212 kts | 236° |
| 2026-04-15 15:48 | 31.60765 | -100.05865 | 9332 ft | 209 kts | 236° |
| 2026-04-15 15:48 | 31.59972 | -100.07286 | 9056 ft | 207 kts | 236° |
| 2026-04-15 15:48 | 31.59184 | -100.08700 | 8783 ft | 207 kts | 236° |
| 2026-04-15 15:49 | 31.58396 | -100.10111 | 8503 ft | 207 kts | 236° |
| 2026-04-15 15:49 | 31.57619 | -100.11504 | 8232 ft | 207 kts | 236° |
| 2026-04-15 15:49 | 31.56832 | -100.12914 | 7962 ft | 207 kts | 236° |
| 2026-04-15 15:49 | 31.56044 | -100.14325 | 7696 ft | 207 kts | 236° |
| 2026-04-15 15:50 | 31.55252 | -100.15740 | 7431 ft | 207 kts | 236° |
| 2026-04-15 15:50 | 31.54461 | -100.17154 | 7170 ft | 207 kts | 237° |
| 2026-04-15 15:50 | 31.53672 | -100.18567 | 6916 ft | 207 kts | 237° |
| 2026-04-15 15:50 | 31.52881 | -100.19980 | 6658 ft | 207 kts | 237° |
| 2026-04-15 15:51 | 31.52103 | -100.21372 | 6565 ft | 202 kts | 237° |
| 2026-04-15 15:51 | 31.51333 | -100.22746 | 6345 ft | 202 kts | 237° |
| 2026-04-15 15:51 | 31.50569 | -100.24112 | 6080 ft | 199 kts | 237° |
| 2026-04-15 15:51 | 31.49812 | -100.25461 | 5822 ft | 197 kts | 237° |
| 2026-04-15 15:52 | 31.49061 | -100.26803 | 5568 ft | 196 kts | 237° |
| 2026-04-15 15:52 | 31.48312 | -100.28137 | 5308 ft | 196 kts | 236° |
| 2026-04-15 15:52 | 31.47567 | -100.29467 | 5053 ft | 195 kts | 236° |
| 2026-04-15 15:52 | 31.46823 | -100.30793 | 4798 ft | 194 kts | 236° |
| 2026-04-15 15:53 | 31.46082 | -100.32113 | 4544 ft | 193 kts | 237° |
| 2026-04-15 15:53 | 31.45349 | -100.33420 | 4290 ft | 191 kts | 237° |
| 2026-04-15 15:53 | 31.44616 | -100.34725 | 4038 ft | 191 kts | 236° |
| 2026-04-15 15:53 | 31.43889 | -100.36019 | 3795 ft | 189 kts | 235° |
| 2026-04-15 15:54 | 31.43164 | -100.37310 | 3548 ft | 190 kts | 236° |
| 2026-04-15 15:54 | 31.42461 | -100.38562 | 3571 ft | 176 kts | 235° |
| 2026-04-15 15:54 | 31.41820 | -100.39703 | 3800 ft | 161 kts | 235° |
| 2026-04-15 15:54 | 31.41415 | -100.40409 | 3946 ft | 154 kts | 238° |
| 2026-04-15 15:55 | 31.41268 | -100.42019 | 4115 ft | 152 kts | 260° |
| 2026-04-15 15:55 | 31.41007 | -100.42772 | 4122 ft | 153 kts | 235° |
| 2026-04-15 15:55 | 31.40515 | -100.43900 | 4123 ft | 159 kts | 250° |
| 2026-04-15 15:55 | 31.40371 | -100.45191 | 4142 ft | 164 kts | 277° |
| 2026-04-15 15:56 | 31.41162 | -100.46197 | 4080 ft | 185 kts | 331° |
| 2026-04-15 15:56 | 31.42323 | -100.46799 | 4130 ft | 180 kts | 329° |
| 2026-04-15 15:56 | 31.43416 | -100.47479 | 3930 ft | 168 kts | 324° |
| 2026-04-15 15:56 | 31.44311 | -100.48259 | 3636 ft | 147 kts | 298° |
| 2026-04-15 15:57 | 31.44376 | -100.49248 | 3542 ft | 115 kts | 236° |
| 2026-04-15 15:57 | 31.43782 | -100.49829 | 3360 ft | 109 kts | 205° |
| 2026-04-15 15:57 | 31.43082 | -100.50118 | 3252 ft | 99 kts | 201° |
| 2026-04-15 15:57 | 31.42401 | -100.50111 | 3153 ft | 102 kts | 172° |
| 2026-04-15 15:58 | 31.41755 | -100.49700 | 3020 ft | 116 kts | 146° |
| 2026-04-15 15:58 | 31.41082 | -100.49218 | 2861 ft | 113 kts | 169° |
| 2026-04-15 15:58 | 31.40344 | -100.49155 | 2664 ft | 103 kts | 187° |
| 2026-04-15 15:58 | 31.39650 | -100.49274 | 2525 ft | 94 kts | 193° |
| 2026-04-15 15:59 | 31.38987 | -100.49398 | 2451 ft | 99 kts | 193° |
| 2026-04-15 15:59 | 31.38314 | -100.49508 | 2345 ft | 94 kts | 191° |
| 2026-04-15 15:59 | 31.37697 | -100.49629 | 2194 ft | 85 kts | 186° |
| 2026-04-15 15:59 | 31.37155 | -100.49717 | 2033 ft | 77 kts | 187° |
| 2026-04-15 16:00 | 31.36616 | -100.49792 | 1912 ft | 76 kts | 187° |
| 2026-04-15 16:00 | 31.36146 | -100.49856 | 1905 ft | 48 kts | 188° |
| 2026-04-15 16:00 | 31.36065 | -100.49902 | 1902 ft | 10 kts | 261° |
| 2026-04-15 16:00 | 31.36035 | -100.49960 | 1897 ft | 6 kts | 232° |
| 2026-04-15 16:01 | 31.36008 | -100.50002 | 1906 ft | 10 kts | 232° |
| 2026-04-15 16:01 | 31.35952 | -100.50082 | 1906 ft | 15 kts | 229° |
| 2026-04-15 16:01 | 31.35888 | -100.50172 | 1903 ft | 13 kts | 226° |
| 2026-04-15 16:01 | 31.35834 | -100.50186 | 1908 ft | 0 kts | 183° |